Malaysia Virtual Airlines Airport Information Service

Chung-cheng Kuo-chi Chi-ch'ang

ICAO: RCTP Country: Taiwan
Latitude: 25.0777 Longitude: 121.233
Latest Arrival : MH68 (WBKK-RCTP) Latest Departure : MH69 (RCTP-WBKK)


WX CaptureLIVE
Data provided by noaa.gov | Fetched at 15:57:52

METAR : RCTP 261530Z 24004KT 9999 FEW015 28/26 Q0997 NOSIG RMK A2944

TAF : RCTP 261100Z 2612/2718 22010KT 9999 FEW015 SCT200 TEMPO 2613/2619 22015KT TEMPO 2619/2624 19008KT TEMPO 2701/2707 26011KT TEMPO 2707/2712 29005KT


Runway Data for RCTP
Data provided by openaviationdata.com

Runway ID Mag Var Hdg Length Elevation Surface ILS Freq ILS Id ILS Slope
5 -3 52° 12020 ft 107 ft Concrete 111.1 ITIA 3
6 -3 52° 11001 ft 107 ft Concrete 110.7 ICKS 3
23 -3 232° 12020 ft 107 ft Concrete 109.3 ITYA 3
24 -3 232° 11001 ft 107 ft Concrete 111.9 ICJN 3

Chung-cheng Kuo-chi Chi-ch'ang, Taiwan
Use only for reference purposes



Not for navigational purposes.